Time;durP1;ratioP1;P1;durP2;ratioP2;P2;SDS_P1;SDS_P2;PMS_P1;PMS_P2;Temp;Humidity;BMP_temperature;BMP_pressure;BME280_temperature;BME280_humidity;BME280_pressure;Samples;Min_cycle;Max_cycle;Signal;HPM_P1;HPM_P2
2023/04/20 00:01:08;;;;;;;2.50;1.80;;;14.60;64.50;;;;;;5024447;28;20461;-73
2023/04/20 00:03:36;;;;;;;2.37;1.87;;;14.60;64.50;;;;;;5024494;28;20464;-73
2023/04/20 00:06:05;;;;;;;2.87;1.90;;;14.60;64.90;;;;;;5006388;28;20816;-73
2023/04/20 00:08:35;;;;;;;2.10;1.70;;;14.60;64.70;;;;;;5024898;28;20583;-72
2023/04/20 00:11:03;;;;;;;2.93;1.80;;;14.60;65.10;;;;;;5008119;28;20564;-73
2023/04/20 00:13:32;;;;;;;3.03;1.97;;;14.60;65.10;;;;;;5024995;28;20470;-72
2023/04/20 00:16:00;;;;;;;2.47;1.60;;;14.60;64.90;;;;;;5027720;28;20992;-72
2023/04/20 00:18:28;;;;;;;5.10;2.40;;;14.60;64.80;;;;;;5000369;28;20480;-72
2023/04/20 00:20:57;;;;;;;3.60;1.63;;;14.60;64.90;;;;;;5024403;28;20969;-72
2023/04/20 00:23:25;;;;;;;3.20;1.97;;;14.60;64.80;;;;;;5025920;28;20481;-72
2023/04/20 00:25:55;;;;;;;2.80;1.70;;;14.60;64.60;;;;;;5024551;28;20488;-72
2023/04/20 00:28:23;;;;;;;2.13;1.77;;;14.60;64.80;;;;;;5015339;28;20696;-73
2023/04/20 00:30:52;;;;;;;2.53;2.20;;;14.60;64.90;;;;;;5007799;28;20584;-72
2023/04/20 00:33:20;;;;;;;4.47;1.80;;;14.60;65.40;;;;;;5008780;28;20531;-72
2023/04/20 00:35:48;;;;;;;4.00;2.10;;;14.60;65.20;;;;;;5026245;28;21040;-73
2023/04/20 00:38:17;;;;;;;4.03;2.40;;;14.60;65.70;;;;;;5008468;28;20557;-72
2023/04/20 00:40:47;;;;;;;3.30;1.80;;;14.60;65.40;;;;;;5024034;28;20513;-72
2023/04/20 00:43:17;;;;;;;3.13;1.40;;;14.60;65.60;;;;;;5024524;28;20472;-72
2023/04/20 00:45:46;;;;;;;2.50;1.70;;;14.60;65.70;;;;;;5006645;28;20489;-72
2023/04/20 00:48:14;;;;;;;3.00;2.00;;;14.50;65.70;;;;;;5020571;28;21177;-72
2023/04/20 00:50:43;;;;;;;3.03;1.90;;;14.50;65.70;;;;;;5007496;28;20470;-72
2023/04/20 00:53:12;;;;;;;2.77;2.10;;;14.50;65.90;;;;;;5024562;28;20464;-72
2023/04/20 00:55:44;;;;;;;2.27;1.60;;;14.50;66.00;;;;;;5024414;28;20465;-73
2023/04/20 00:58:13;;;;;;;2.87;1.47;;;14.50;66.30;;;;;;5000973;28;21077;-72
2023/04/20 01:00:43;;;;;;;2.50;1.80;;;14.50;66.50;;;;;;5007388;28;20519;-72
2023/04/20 01:03:11;;;;;;;2.00;1.50;;;14.50;66.20;;;;;;5000450;28;20964;-72
2023/04/20 01:05:40;;;;;;;4.50;1.90;;;14.50;66.30;;;;;;5007616;28;20454;-72
2023/04/20 01:08:10;;;;;;;2.83;1.60;;;14.50;66.30;;;;;;5011872;28;20896;-72
2023/04/20 01:10:38;;;;;;;2.63;1.93;;;14.50;66.00;;;;;;5023414;28;20539;-72
2023/04/20 01:13:07;;;;;;;2.20;1.63;;;14.50;65.90;;;;;;5024587;28;20469;-72
2023/04/20 01:15:35;;;;;;;2.07;1.53;;;14.50;65.60;;;;;;5004130;28;20487;-72
2023/04/20 01:18:05;;;;;;;2.10;1.63;;;14.50;65.90;;;;;;5018699;28;20477;-73
2023/04/20 01:20:34;;;;;;;2.47;2.07;;;14.50;65.70;;;;;;5012376;28;20986;-72
2023/04/20 01:23:04;;;;;;;3.30;2.00;;;14.50;65.90;;;;;;5025304;28;20489;-72
2023/04/20 01:25:32;;;;;;;2.80;1.97;;;14.50;65.90;;;;;;5024202;28;20470;-72
2023/04/20 01:28:00;;;;;;;3.27;2.00;;;14.50;65.70;;;;;;5004666;28;20858;-72
2023/04/20 01:30:32;;;;;;;2.27;1.43;;;14.50;66.10;;;;;;5007078;28;20476;-72
2023/04/20 01:33:04;;;;;;;4.63;1.90;;;14.50;66.30;;;;;;5022868;28;20487;-72
2023/04/20 01:35:32;;;;;;;2.80;2.10;;;14.50;66.30;;;;;;5000581;28;20859;-72
2023/04/20 01:38:03;;;;;;;2.33;1.70;;;14.50;66.20;;;;;;5022373;28;20476;-72
2023/04/20 01:40:31;;;;;;;2.50;1.70;;;14.50;66.60;;;;;;5005487;28;20469;-73
2023/04/20 01:43:00;;;;;;;2.80;1.90;;;14.50;66.50;;;;;;5022266;28;20844;-72
2023/04/20 01:45:28;;;;;;;3.83;1.80;;;14.50;66.50;;;;;;5023659;28;20979;-72
2023/04/20 01:47:57;;;;;;;2.70;1.67;;;14.50;66.30;;;;;;5019848;28;21005;-72
2023/04/20 01:50:26;;;;;;;2.30;1.50;;;14.40;66.20;;;;;;5006725;28;20465;-72
2023/04/20 01:52:54;;;;;;;2.73;1.60;;;14.50;66.20;;;;;;5006843;28;20472;-72
2023/04/20 01:55:24;;;;;;;2.67;1.80;;;14.50;66.50;;;;;;5019804;28;20511;-72
2023/04/20 01:57:53;;;;;;;3.20;2.13;;;14.40;66.30;;;;;;4995341;28;20507;-72
2023/04/20 02:00:21;;;;;;;2.93;1.53;;;14.40;66.50;;;;;;5019465;28;20547;-72
2023/04/20 02:02:50;;;;;;;3.67;2.00;;;14.40;66.90;;;;;;5020165;28;20551;-72
2023/04/20 02:05:18;;;;;;;2.20;1.60;;;14.40;67.00;;;;;;5008830;28;20438;-73
2023/04/20 02:07:47;;;;;;;2.17;1.63;;;14.50;67.00;;;;;;5024889;28;20911;-72
2023/04/20 02:10:15;;;;;;;3.90;1.60;;;14.40;67.10;;;;;;5026570;28;20461;-72
2023/04/20 02:12:47;;;;;;;3.03;1.90;;;14.40;67.10;;;;;;5024565;28;20505;-73
2023/04/20 02:15:16;;;;;;;2.17;1.50;;;14.40;66.90;;;;;;5029237;28;20794;-72
2023/04/20 02:17:44;;;;;;;2.70;1.80;;;14.40;67.20;;;;;;5016636;28;20866;-72
2023/04/20 02:20:13;;;;;;;2.30;1.50;;;14.40;67.40;;;;;;5010000;28;20465;-72
2023/04/20 02:22:41;;;;;;;3.70;2.23;;;14.40;67.30;;;;;;5032532;28;20883;-72
2023/04/20 02:25:10;;;;;;;2.90;2.10;;;14.40;67.10;;;;;;5024495;28;20529;-72
2023/04/20 02:27:38;;;;;;;3.60;1.83;;;14.40;67.00;;;;;;5024015;28;20473;-72
2023/04/20 02:30:10;;;;;;;2.03;1.47;;;14.40;66.60;;;;;;5025379;28;20462;-72
2023/04/20 02:32:42;;;;;;;2.87;1.97;;;14.40;66.70;;;;;;5015724;28;20500;-72
2023/04/20 02:35:11;;;;;;;2.57;1.60;;;14.40;67.10;;;;;;5009301;28;20468;-72
2023/04/20 02:37:39;;;;;;;2.67;2.00;;;14.40;67.60;;;;;;5024782;28;20468;-73
2023/04/20 02:40:09;;;;;;;2.40;1.73;;;14.40;67.90;;;;;;5024862;28;20970;-72
2023/04/20 02:42:37;;;;;;;1.90;1.20;;;14.40;68.10;;;;;;5024493;28;20528;-73
2023/04/20 02:45:11;;;;;;;2.13;1.60;;;14.40;68.30;;;;;;5025067;28;20453;-73
2023/04/20 02:47:41;;;;;;;2.60;1.50;;;14.40;68.40;;;;;;5001104;28;20466;-73
2023/04/20 02:50:11;;;;;;;2.30;1.80;;;14.40;67.70;;;;;;5013205;28;20863;-73
2023/04/20 02:52:58;;;;;;;2.60;1.73;;;14.40;67.70;;;;;;5020457;28;20995;-72
2023/04/20 02:55:28;;;;;;;3.20;1.50;;;14.30;67.30;;;;;;5002925;28;20467;-73
2023/04/20 02:58:03;;;;;;;2.40;1.63;;;14.30;67.80;;;;;;5024153;28;20468;-73
2023/04/20 03:00:58;;;;;;;2.60;1.73;;;14.30;67.70;;;;;;5008834;28;20461;-73
2023/04/20 03:03:27;;;;;;;5.20;2.53;;;14.30;67.90;;;;;;5022179;28;20477;-74
2023/04/20 03:05:57;;;;;;;2.27;1.80;;;14.30;67.70;;;;;;5000679;28;20453;-72
2023/04/20 03:08:25;;;;;;;2.30;1.67;;;14.30;67.50;;;;;;5018445;28;20879;-73
2023/04/20 03:10:56;;;;;;;3.07;1.70;;;14.30;67.60;;;;;;5004477;28;20461;-73
2023/04/20 03:13:24;;;;;;;3.60;1.90;;;14.30;67.70;;;;;;5005562;28;20489;-73
2023/04/20 03:16:00;;;;;;;2.43;1.70;;;14.30;67.30;;;;;;4999471;28;20449;-72
2023/04/20 03:18:34;;;;;;;2.33;1.40;;;14.30;67.80;;;;;;5005414;28;20484;-72
2023/04/20 03:21:02;;;;;;;2.43;1.93;;;14.30;68.30;;;;;;5006028;28;20729;-73
2023/04/20 03:23:32;;;;;;;2.30;1.60;;;14.30;68.40;;;;;;5018211;28;20462;-73
2023/04/20 03:26:03;;;;;;;3.10;1.70;;;14.30;68.70;;;;;;5021498;28;20805;-73
2023/04/20 03:28:39;;;;;;;3.73;2.10;;;14.30;68.00;;;;;;5022267;28;20488;-73
2023/04/20 03:31:11;;;;;;;3.00;2.00;;;14.30;68.00;;;;;;5006536;28;20469;-73
2023/04/20 03:33:39;;;;;;;2.70;2.10;;;14.30;68.30;;;;;;5005539;28;20535;-73
2023/04/20 03:36:08;;;;;;;2.03;1.20;;;14.30;68.70;;;;;;5009431;28;20528;-73
2023/04/20 03:38:37;;;;;;;2.23;2.00;;;14.30;68.70;;;;;;5003511;28;20469;-73
2023/04/20 03:41:06;;;;;;;2.77;1.80;;;14.30;68.70;;;;;;5024037;28;20477;-72
2023/04/20 03:43:35;;;;;;;2.60;1.90;;;14.30;68.00;;;;;;5005471;28;20479;-72
2023/04/20 03:46:04;;;;;;;4.00;2.07;;;14.30;68.20;;;;;;5022778;28;20442;-72
2023/04/20 03:48:34;;;;;;;2.87;1.60;;;14.20;68.40;;;;;;5018952;28;20827;-72
2023/04/20 03:51:03;;;;;;;2.53;1.70;;;14.20;68.50;;;;;;5024762;28;20557;-72
2023/04/20 03:53:31;;;;;;;4.23;2.13;;;14.20;68.00;;;;;;5023538;28;20564;-72
2023/04/20 03:56:01;;;;;;;2.80;1.70;;;14.20;68.00;;;;;;5021509;28;20460;-73
2023/04/20 03:58:30;;;;;;;2.30;1.63;;;14.20;68.20;;;;;;5005241;28;20880;-72
2023/04/20 04:01:12;;;;;;;2.87;2.03;;;14.20;67.30;;;;;;5022828;28;20458;-72
2023/04/20 04:03:46;;;;;;;3.07;2.13;;;14.20;67.70;;;;;;5027948;28;20453;-73
2023/04/20 04:06:14;;;;;;;3.73;2.17;;;14.20;67.70;;;;;;5025826;28;20503;-73
2023/04/20 04:08:43;;;;;;;3.27;2.27;;;14.20;67.20;;;;;;5024688;28;20861;-73
2023/04/20 04:11:11;;;;;;;2.30;1.73;;;14.20;67.10;;;;;;5025276;28;20461;-73
2023/04/20 04:13:40;;;;;;;2.40;1.53;;;14.20;67.70;;;;;;5009855;28;20553;-73
2023/04/20 04:16:09;;;;;;;2.60;1.87;;;14.20;68.00;;;;;;5020502;28;20437;-73
2023/04/20 04:18:38;;;;;;;5.50;2.13;;;14.20;67.30;;;;;;5008050;28;20469;-72
2023/04/20 04:21:11;;;;;;;2.63;1.70;;;14.20;67.50;;;;;;5029458;28;20469;-72
2023/04/20 04:23:43;;;;;;;3.10;2.10;;;14.10;67.60;;;;;;5025312;28;20461;-72
2023/04/20 04:26:20;;;;;;;3.60;1.90;;;14.10;67.80;;;;;;5004745;28;20453;-72
2023/04/20 04:28:49;;;;;;;2.40;1.50;;;14.10;68.00;;;;;;5023055;28;20437;-73
2023/04/20 04:31:20;;;;;;;4.10;2.60;;;14.10;67.80;;;;;;5008535;28;20469;-73
2023/04/20 04:33:48;;;;;;;2.77;1.90;;;14.10;64.70;;;;;;5009479;28;20531;-73
2023/04/20 04:36:38;;;;;;;3.80;2.03;;;14.10;66.80;;;;;;5008729;28;20453;-73
2023/04/20 04:39:11;;;;;;;4.17;1.83;;;14.10;67.90;;;;;;5018658;28;20453;-73
2023/04/20 04:41:44;;;;;;;2.97;2.10;;;14.10;67.90;;;;;;5007541;28;20477;-73
2023/04/20 04:44:21;;;;;;;3.03;2.13;;;14.10;68.10;;;;;;5022128;28;20445;-73
2023/04/20 04:46:50;;;;;;;2.50;1.83;;;14.10;67.90;;;;;;5024451;28;20465;-72
2023/04/20 04:49:19;;;;;;;2.30;1.70;;;14.10;68.10;;;;;;5009497;28;20653;-72
2023/04/20 04:51:49;;;;;;;2.33;1.73;;;14.10;68.20;;;;;;5008289;28;20572;-72
2023/04/20 04:54:17;;;;;;;2.50;1.73;;;14.10;68.30;;;;;;5024182;28;20456;-73
2023/04/20 04:56:45;;;;;;;2.73;1.90;;;14.10;68.40;;;;;;5007550;28;20463;-73
2023/04/20 04:59:14;;;;;;;3.90;2.40;;;14.10;68.40;;;;;;5021962;28;20441;-72
2023/04/20 05:01:43;;;;;;;2.77;1.90;;;14.10;68.40;;;;;;5007221;28;20520;-73
2023/04/20 05:04:11;;;;;;;2.73;1.57;;;14.10;68.40;;;;;;5014521;28;20452;-72
2023/04/20 05:06:40;;;;;;;3.37;1.70;;;14.10;68.50;;;;;;5024962;28;20466;-72
2023/04/20 05:09:10;;;;;;;3.13;2.83;;;14.10;68.60;;;;;;5008363;28;20944;-72
2023/04/20 05:11:38;;;;;;;3.10;2.00;;;14.10;68.60;;;;;;5022906;28;20465;-72
2023/04/20 05:14:07;;;;;;;2.20;1.90;;;14.10;68.50;;;;;;5023816;28;20433;-72
2023/04/20 05:16:35;;;;;;;2.60;1.97;;;14.10;68.70;;;;;;5010108;28;20430;-73
2023/04/20 05:19:03;;;;;;;3.33;1.70;;;14.00;68.80;;;;;;5001123;28;20496;-73
2023/04/20 05:21:32;;;;;;;3.20;2.37;;;14.00;68.50;;;;;;5020402;28;20572;-72
2023/04/20 05:24:00;;;;;;;2.47;1.83;;;14.00;68.60;;;;;;5025642;28;20477;-73
2023/04/20 05:26:30;;;;;;;2.80;2.40;;;14.00;68.70;;;;;;5007843;28;20975;-73
2023/04/20 05:28:58;;;;;;;3.23;2.20;;;14.00;68.90;;;;;;5028101;28;20535;-72
2023/04/20 05:31:27;;;;;;;3.10;1.87;;;14.00;68.90;;;;;;5030332;28;20464;-72
2023/04/20 05:33:56;;;;;;;3.20;1.97;;;14.00;68.90;;;;;;5005858;28;20449;-73
2023/04/20 05:36:25;;;;;;;3.90;2.27;;;14.00;68.90;;;;;;5021531;28;20422;-72
2023/04/20 05:38:53;;;;;;;3.30;2.33;;;14.00;68.70;;;;;;5016602;28;20881;-72
2023/04/20 05:41:25;;;;;;;3.20;2.00;;;14.00;68.90;;;;;;5003746;28;20520;-72
2023/04/20 05:43:56;;;;;;;2.90;2.30;;;14.00;68.90;;;;;;5007885;28;20490;-73
2023/04/20 05:46:24;;;;;;;2.53;2.17;;;14.00;69.10;;;;;;5021769;28;21009;-73
2023/04/20 05:48:52;;;;;;;2.50;1.90;;;14.00;69.00;;;;;;5022820;28;20968;-72
2023/04/20 05:51:21;;;;;;;3.23;2.20;;;13.90;68.90;;;;;;5023008;28;20481;-73
2023/04/20 05:53:49;;;;;;;3.20;2.40;;;14.00;69.20;;;;;;5015816;28;20929;-73
2023/04/20 05:56:18;;;;;;;2.30;2.00;;;14.00;69.20;;;;;;5021303;28;20444;-73
2023/04/20 05:58:47;;;;;;;3.13;2.63;;;13.90;69.10;;;;;;5014222;28;20450;-72
2023/04/20 06:01:16;;;;;;;3.23;2.17;;;13.90;69.30;;;;;;5018783;28;20891;-73
2023/04/20 06:03:46;;;;;;;2.50;1.90;;;13.90;68.90;;;;;;5020859;28;20533;-73
2023/04/20 06:06:15;;;;;;;2.73;2.20;;;13.90;69.20;;;;;;5023179;28;20962;-73
2023/04/20 06:08:44;;;;;;;5.30;2.40;;;13.90;69.30;;;;;;5012876;28;20484;-72
2023/04/20 06:11:12;;;;;;;2.90;2.00;;;13.90;69.30;;;;;;4998660;28;20565;-73
2023/04/20 06:13:41;;;;;;;4.20;2.33;;;13.90;69.50;;;;;;5005017;28;20512;-72
2023/04/20 06:16:09;;;;;;;2.90;2.00;;;13.90;69.50;;;;;;5003660;28;20969;-73
2023/04/20 06:18:40;;;;;;;3.07;2.00;;;13.90;69.60;;;;;;4988448;28;20526;-73
2023/04/20 06:21:10;;;;;;;2.73;2.13;;;13.90;69.70;;;;;;5012488;28;20462;-73
2023/04/20 06:23:39;;;;;;;3.50;2.20;;;13.90;69.70;;;;;;5005370;28;21044;-73
2023/04/20 06:26:09;;;;;;;2.70;1.80;;;13.90;69.60;;;;;;5019969;28;20453;-72
2023/04/20 06:28:37;;;;;;;2.90;1.87;;;13.90;70.00;;;;;;5001487;28;21010;-74
2023/04/20 06:31:06;;;;;;;5.27;2.13;;;13.90;69.50;;;;;;5002726;28;20477;-73
2023/04/20 06:33:35;;;;;;;3.27;2.43;;;13.80;69.80;;;;;;5020315;28;20571;-73
2023/04/20 06:36:07;;;;;;;2.33;1.80;;;13.90;69.90;;;;;;5006230;28;20541;-73
2023/04/20 06:38:35;;;;;;;2.83;2.30;;;13.90;69.90;;;;;;4993793;28;20474;-72
2023/04/20 06:41:04;;;;;;;3.93;2.80;;;13.80;69.90;;;;;;5017931;28;20552;-72
2023/04/20 06:43:32;;;;;;;2.73;2.27;;;13.90;70.10;;;;;;5006317;28;20905;-73
2023/04/20 06:46:00;;;;;;;2.53;2.00;;;13.80;70.10;;;;;;5021423;28;20464;-74
2023/04/20 06:48:29;;;;;;;3.70;2.07;;;13.80;70.10;;;;;;5016714;28;20466;-73
2023/04/20 06:51:00;;;;;;;3.17;1.93;;;13.90;70.30;;;;;;5021315;28;20968;-73
2023/04/20 06:53:31;;;;;;;2.43;1.53;;;13.80;70.20;;;;;;5006728;28;20481;-73
2023/04/20 06:55:59;;;;;;;3.13;2.27;;;13.80;70.40;;;;;;5021840;28;20829;-73
2023/04/20 06:58:27;;;;;;;2.57;2.17;;;13.80;70.50;;;;;;5020572;28;20477;-72
2023/04/20 07:00:56;;;;;;;2.80;1.97;;;13.80;70.50;;;;;;5002734;28;20468;-73
2023/04/20 07:03:24;;;;;;;3.33;2.17;;;13.80;70.50;;;;;;5017989;28;21045;-73
2023/04/20 07:05:53;;;;;;;2.57;1.80;;;13.80;70.40;;;;;;5018387;28;20837;-72
2023/04/20 07:08:21;;;;;;;2.87;2.27;;;13.80;70.60;;;;;;5019150;28;20469;-72
2023/04/20 07:10:51;;;;;;;3.00;2.00;;;13.80;70.80;;;;;;5004120;28;20461;-73
2023/04/20 07:13:20;;;;;;;3.27;2.43;;;13.80;70.80;;;;;;5024274;28;20897;-72
2023/04/20 07:15:48;;;;;;;3.87;2.57;;;13.80;70.80;;;;;;5016116;28;20541;-73
2023/04/20 07:18:16;;;;;;;3.20;2.03;;;13.80;70.80;;;;;;5004258;28;20584;-71
2023/04/20 07:20:45;;;;;;;3.27;2.30;;;13.80;70.80;;;;;;5003506;28;20457;-73
2023/04/20 07:23:13;;;;;;;4.63;3.00;;;13.80;70.90;;;;;;5013335;28;20473;-73
2023/04/20 07:25:41;;;;;;;2.77;2.43;;;13.80;70.80;;;;;;5014613;28;20788;-73
2023/04/20 07:28:11;;;;;;;4.33;2.57;;;13.80;70.90;;;;;;5019946;28;20465;-73
2023/04/20 07:30:40;;;;;;;2.87;2.30;;;13.80;70.90;;;;;;5023557;28;20461;-73
2023/04/20 07:33:09;;;;;;;3.23;2.50;;;13.70;71.00;;;;;;5001589;28;20464;-73
2023/04/20 07:35:38;;;;;;;2.10;1.70;;;13.70;70.90;;;;;;5003034;28;20500;-73
2023/04/20 07:38:07;;;;;;;2.83;2.30;;;13.70;70.90;;;;;;5022108;28;20614;-72
2023/04/20 07:40:36;;;;;;;3.13;2.00;;;13.70;71.00;;;;;;5029133;28;20480;-73
2023/04/20 07:43:04;;;;;;;3.23;2.70;;;13.70;71.20;;;;;;5023755;28;20481;-72
2023/04/20 07:45:34;;;;;;;2.63;2.00;;;13.70;71.20;;;;;;5025750;28;20989;-73
2023/04/20 07:48:04;;;;;;;3.10;2.10;;;13.70;71.10;;;;;;5008938;28;20975;-73
2023/04/20 07:50:32;;;;;;;2.90;2.10;;;13.70;71.10;;;;;;5009464;28;20487;-73
2023/04/20 07:53:01;;;;;;;3.57;2.70;;;13.70;71.30;;;;;;5025021;28;20552;-72
2023/04/20 07:55:29;;;;;;;3.03;2.37;;;13.70;71.10;;;;;;5025610;28;20831;-74
2023/04/20 07:57:59;;;;;;;3.87;2.00;;;13.70;71.10;;;;;;5024342;28;20479;-72
2023/04/20 08:00:28;;;;;;;3.00;2.20;;;13.70;71.20;;;;;;5007353;28;20491;-73
2023/04/20 08:02:58;;;;;;;2.67;2.10;;;13.70;71.50;;;;;;5006471;28;20528;-72
2023/04/20 08:05:27;;;;;;;2.50;2.07;;;13.70;71.40;;;;;;5008645;28;20958;-73
2023/04/20 08:07:55;;;;;;;2.80;1.90;;;13.70;71.40;;;;;;5023932;28;20996;-73
2023/04/20 08:10:23;;;;;;;3.53;2.43;;;13.60;71.10;;;;;;5008944;28;20499;-73
2023/04/20 08:12:52;;;;;;;3.07;2.10;;;13.70;71.30;;;;;;5022669;28;20469;-73
2023/04/20 08:15:20;;;;;;;3.83;2.53;;;13.70;71.50;;;;;;5025434;28;20739;-73
2023/04/20 08:17:49;;;;;;;2.60;2.10;;;13.60;71.20;;;;;;5023796;28;20827;-73
2023/04/20 08:20:19;;;;;;;3.23;1.70;;;13.60;71.30;;;;;;5019908;28;20454;-73
2023/04/20 08:22:48;;;;;;;4.67;3.37;;;13.60;71.30;;;;;;5029119;28;20504;-72
2023/04/20 08:25:16;;;;;;;3.87;2.70;;;13.60;71.40;;;;;;5024990;28;20422;-73
2023/04/20 08:27:45;;;;;;;2.60;2.10;;;13.60;71.40;;;;;;5007754;28;20799;-72
2023/04/20 08:30:14;;;;;;;3.17;2.20;;;13.60;71.50;;;;;;5025336;28;20441;-72
2023/04/20 08:32:42;;;;;;;3.13;2.40;;;13.60;71.50;;;;;;5016064;28;20474;-73
2023/04/20 08:35:12;;;;;;;2.43;1.87;;;13.60;71.70;;;;;;5008340;28;20794;-71
2023/04/20 08:37:42;;;;;;;3.20;2.17;;;13.60;71.70;;;;;;5024529;28;20469;-74
2023/04/20 08:40:11;;;;;;;2.90;2.10;;;13.60;71.80;;;;;;5024227;28;20461;-73
2023/04/20 08:42:40;;;;;;;3.37;2.10;;;13.60;71.80;;;;;;5021724;28;20508;-74
2023/04/20 08:45:08;;;;;;;2.47;2.20;;;13.60;71.80;;;;;;5024506;28;20488;-73
2023/04/20 08:47:37;;;;;;;2.40;1.90;;;13.60;71.90;;;;;;4997520;28;20573;-73
2023/04/20 08:50:07;;;;;;;2.93;2.27;;;13.60;72.00;;;;;;5023499;28;20465;-72
2023/04/20 08:52:37;;;;;;;3.23;2.13;;;13.60;72.00;;;;;;5024669;28;20554;-72
2023/04/20 08:55:08;;;;;;;3.23;2.03;;;13.60;72.10;;;;;;5008336;28;20468;-73
2023/04/20 08:57:37;;;;;;;2.60;1.80;;;13.60;72.10;;;;;;5008223;28;20461;-72
2023/04/20 09:00:09;;;;;;;3.37;2.17;;;13.50;71.70;;;;;;5024976;28;20522;-73
2023/04/20 09:02:50;;;;;;;3.13;2.50;;;13.50;72.00;;;;;;5005698;28;20485;-72
2023/04/20 09:05:26;;;;;;;3.00;2.13;;;13.50;72.10;;;;;;5009802;28;20435;-71
2023/04/20 09:07:57;;;;;;;2.10;1.73;;;13.50;72.00;;;;;;5006548;28;20512;-73
2023/04/20 09:10:38;;;;;;;3.17;2.37;;;13.50;72.10;;;;;;5009038;28;21029;-73
2023/04/20 09:13:07;;;;;;;2.40;1.93;;;13.50;72.20;;;;;;5001944;28;20477;-74
2023/04/20 09:15:36;;;;;;;4.80;2.23;;;13.50;72.20;;;;;;5024593;28;20425;-72
2023/04/20 09:18:14;;;;;;;3.60;2.23;;;13.50;72.30;;;;;;5023067;28;20499;-73
2023/04/20 09:20:43;;;;;;;3.10;1.93;;;13.50;72.40;;;;;;5000733;28;20531;-73
2023/04/20 09:23:12;;;;;;;3.33;2.13;;;13.50;72.40;;;;;;5023691;28;20865;-73
2023/04/20 09:25:44;;;;;;;3.03;2.37;;;13.50;72.40;;;;;;5024159;28;20795;-74
2023/04/20 09:28:14;;;;;;;3.13;2.10;;;13.50;72.40;;;;;;5023027;28;20492;-72
2023/04/20 09:30:44;;;;;;;2.07;1.70;;;13.50;72.40;;;;;;5023238;28;20857;-74
2023/04/20 09:33:13;;;;;;;2.83;2.33;;;13.50;72.40;;;;;;5004964;28;20485;-73
2023/04/20 09:35:42;;;;;;;3.33;2.70;;;13.50;72.40;;;;;;5005548;28;20444;-72
2023/04/20 09:38:14;;;;;;;2.67;2.43;;;13.50;72.40;;;;;;5013441;28;20466;-66
2023/04/20 09:40:44;;;;;;;2.73;2.13;;;13.40;72.30;;;;;;5022588;28;20464;-65
2023/04/20 09:43:18;;;;;;;2.80;2.20;;;13.40;72.20;;;;;;5020952;28;20468;-65
2023/04/20 09:45:46;;;;;;;2.40;1.87;;;13.50;72.50;;;;;;5010460;28;20956;-65
2023/04/20 09:48:18;;;;;;;2.40;2.00;;;13.50;72.40;;;;;;5002986;28;20487;-65
2023/04/20 09:50:52;;;;;;;2.60;1.93;;;13.40;72.30;;;;;;5021077;28;21115;-65
2023/04/20 09:53:21;;;;;;;2.43;2.00;;;13.40;72.30;;;;;;5004375;28;20563;-65
2023/04/20 09:55:52;;;;;;;3.53;2.27;;;13.40;72.30;;;;;;5022449;28;20460;-74
2023/04/20 09:58:21;;;;;;;3.03;1.90;;;13.40;72.40;;;;;;4997501;28;20484;-72
2023/04/20 10:00:49;;;;;;;2.50;1.80;;;13.40;72.60;;;;;;5019568;28;20465;-65
2023/04/20 10:03:19;;;;;;;2.97;2.07;;;13.40;72.40;;;;;;5019211;28;20461;-66
2023/04/20 10:05:47;;;;;;;2.60;2.20;;;13.40;72.60;;;;;;5029969;28;21035;-65
2023/04/20 10:08:17;;;;;;;2.93;2.27;;;13.40;72.40;;;;;;5018608;28;20487;-67
2023/04/20 10:10:47;;;;;;;5.23;2.10;;;13.40;72.50;;;;;;5021157;28;20482;-65
2023/04/20 10:13:18;;;;;;;2.30;2.10;;;13.40;72.60;;;;;;5021947;28;20474;-66
2023/04/20 10:15:47;;;;;;;3.10;2.00;;;13.40;72.40;;;;;;5021278;28;20440;-65
2023/04/20 10:18:17;;;;;;;2.63;2.03;;;13.40;72.60;;;;;;5004410;28;20978;-65
2023/04/20 10:20:46;;;;;;;2.70;1.80;;;13.30;72.20;;;;;;5022334;28;20454;-66
2023/04/20 10:23:15;;;;;;;2.33;1.57;;;13.30;72.50;;;;;;5004534;28;20516;-67
2023/04/20 10:25:54;;;;;;;2.60;1.93;;;13.30;72.20;;;;;;5020728;28;20903;-66
2023/04/20 10:28:24;;;;;;;2.90;2.03;;;13.30;72.70;;;;;;5003499;28;20461;-65
2023/04/20 10:30:53;;;;;;;2.60;1.90;;;13.30;72.50;;;;;;5019797;28;20562;-65
2023/04/20 10:33:22;;;;;;;2.00;1.50;;;13.30;72.70;;;;;;5017104;28;20527;-66
2023/04/20 10:35:53;;;;;;;2.63;1.93;;;13.30;72.60;;;;;;5023868;28;20512;-66
2023/04/20 10:38:32;;;;;;;3.30;2.20;;;13.30;72.80;;;;;;4988824;28;20909;-66
2023/04/20 10:41:06;;;;;;;3.03;2.00;;;13.30;73.00;;;;;;5019400;28;20569;-67
2023/04/20 10:43:40;;;;;;;2.23;1.40;;;13.30;72.50;;;;;;5004276;28;20476;-65
2023/04/20 10:46:16;;;;;;;2.50;1.63;;;13.30;72.70;;;;;;4998730;28;20628;-66
2023/04/20 10:48:52;;;;;;;2.20;1.70;;;13.30;72.60;;;;;;5004582;28;20480;-66
2023/04/20 10:51:21;;;;;;;2.13;1.37;;;13.30;73.00;;;;;;5010048;28;21098;-65
2023/04/20 10:54:00;;;;;;;2.40;1.63;;;13.30;73.20;;;;;;4989933;28;20477;-66
2023/04/20 10:56:36;;;;;;;2.07;1.50;;;13.30;73.30;;;;;;5018857;28;20463;-64
2023/04/20 10:59:08;;;;;;;2.27;1.87;;;13.30;73.70;;;;;;5007663;28;20735;-65
2023/04/20 11:01:36;;;;;;;2.13;1.50;;;13.30;73.60;;;;;;5010754;28;20467;-66
2023/04/20 11:04:05;;;;;;;2.10;1.47;;;13.30;73.50;;;;;;5021633;28;20504;-64
2023/04/20 11:06:34;;;;;;;2.07;1.57;;;13.30;73.60;;;;;;5021931;28;20437;-65
2023/04/20 11:09:03;;;;;;;2.90;1.83;;;13.30;73.60;;;;;;5022377;28;20437;-65
2023/04/20 11:11:31;;;;;;;2.73;1.53;;;13.30;73.50;;;;;;5021348;28;20465;-64
2023/04/20 11:14:09;;;;;;;2.40;1.60;;;13.30;73.50;;;;;;5025698;28;20483;-64
2023/04/20 11:16:39;;;;;;;2.20;1.40;;;13.30;73.60;;;;;;5021779;28;20436;-72
2023/04/20 11:19:24;;;;;;;2.73;1.53;;;13.30;73.60;;;;;;5010115;28;20445;-72
2023/04/20 11:21:53;;;;;;;2.13;1.47;;;13.30;73.60;;;;;;5017911;28;21012;-73
2023/04/20 11:24:23;;;;;;;2.30;1.63;;;13.40;73.70;;;;;;5011241;28;20938;-72
2023/04/20 11:26:53;;;;;;;2.00;1.20;;;13.30;73.60;;;;;;5025549;28;20979;-64
2023/04/20 11:29:31;;;;;;;2.20;1.43;;;13.40;73.80;;;;;;5010004;28;20447;-64
2023/04/20 11:32:00;;;;;;;2.30;1.63;;;13.40;73.70;;;;;;5025416;28;20580;-64
2023/04/20 11:34:29;;;;;;;2.43;1.70;;;13.30;73.60;;;;;;5024764;28;20479;-64
2023/04/20 11:36:59;;;;;;;2.10;1.30;;;13.40;73.80;;;;;;5007922;28;20539;-66
2023/04/20 11:39:28;;;;;;;3.10;1.90;;;13.40;73.70;;;;;;5005848;28;20449;-65
2023/04/20 11:41:57;;;;;;;2.20;1.63;;;13.30;73.70;;;;;;5019764;28;20453;-65
2023/04/20 11:44:26;;;;;;;2.20;1.50;;;13.30;73.60;;;;;;5019264;28;20478;-64
2023/04/20 11:46:56;;;;;;;2.70;1.83;;;13.30;73.70;;;;;;5002046;28;20468;-65
2023/04/20 11:49:26;;;;;;;2.20;1.43;;;13.30;73.70;;;;;;5027237;28;20451;-64
2023/04/20 11:51:55;;;;;;;2.70;1.70;;;13.40;73.90;;;;;;5010085;28;20948;-63
2023/04/20 11:54:24;;;;;;;2.20;1.53;;;13.40;73.70;;;;;;5024301;28;20515;-64
2023/04/20 11:56:52;;;;;;;2.10;1.53;;;13.30;73.80;;;;;;5023791;28;20496;-65
2023/04/20 11:59:20;;;;;;;4.27;2.93;;;13.30;73.60;;;;;;5009429;28;20509;-65
2023/04/20 12:01:49;;;;;;;4.13;3.77;;;13.30;73.80;;;;;;5018938;28;20472;-66
2023/04/20 12:04:18;;;;;;;4.20;3.80;;;13.20;73.70;;;;;;5000423;28;20457;-64
2023/04/20 12:06:47;;;;;;;3.13;2.83;;;13.20;73.70;;;;;;5009980;28;20447;-66
2023/04/20 12:09:16;;;;;;;3.67;2.93;;;13.20;74.00;;;;;;5008710;28;20477;-64
2023/04/20 12:11:44;;;;;;;2.90;2.50;;;13.20;73.80;;;;;;5022334;28;20501;-64
2023/04/20 12:14:13;;;;;;;3.13;2.73;;;13.20;73.90;;;;;;5025205;28;20484;-64
2023/04/20 12:16:42;;;;;;;2.97;2.67;;;13.20;73.90;;;;;;5023064;28;20460;-65
2023/04/20 12:19:10;;;;;;;2.13;1.90;;;13.20;73.90;;;;;;5000502;28;20582;-65
2023/04/20 12:21:40;;;;;;;3.37;2.40;;;13.20;73.60;;;;;;4999917;28;20460;-64
2023/04/20 12:24:08;;;;;;;2.60;2.23;;;13.20;73.90;;;;;;5009730;28;20532;-68
2023/04/20 12:26:37;;;;;;;2.33;2.07;;;13.20;73.60;;;;;;5010778;28;20424;-66
2023/04/20 12:29:07;;;;;;;2.83;2.27;;;13.20;73.90;;;;;;5024670;28;20431;-64
2023/04/20 12:31:35;;;;;;;2.47;2.03;;;13.20;73.80;;;;;;5008114;28;20496;-64
2023/04/20 12:34:04;;;;;;;2.83;2.50;;;13.20;73.80;;;;;;5023453;28;20465;-64
2023/04/20 12:36:33;;;;;;;2.60;2.30;;;13.20;73.80;;;;;;5013617;28;20938;-64
2023/04/20 12:39:04;;;;;;;2.90;2.33;;;13.20;73.80;;;;;;5008144;28;20453;-64
2023/04/20 12:41:33;;;;;;;3.20;2.40;;;13.20;73.50;;;;;;5006827;28;20473;-64
2023/04/20 12:44:01;;;;;;;3.93;3.23;;;13.20;73.60;;;;;;5018570;28;20521;-65
2023/04/20 12:46:34;;;;;;;2.90;2.57;;;13.20;73.20;;;;;;5024678;28;20659;-64
2023/04/20 12:49:02;;;;;;;2.63;2.30;;;13.20;73.60;;;;;;5000843;28;20445;-65
2023/04/20 12:51:30;;;;;;;2.80;2.37;;;13.20;74.00;;;;;;5004686;28;20465;-64
2023/04/20 12:53:59;;;;;;;2.50;2.00;;;13.20;73.80;;;;;;5024817;28;20473;-64
2023/04/20 12:56:28;;;;;;;2.93;2.40;;;13.20;73.80;;;;;;5004087;28;20842;-65
2023/04/20 12:58:57;;;;;;;2.80;2.23;;;13.20;73.40;;;;;;5003517;28;20453;-65
2023/04/20 13:01:25;;;;;;;2.30;2.10;;;13.20;73.60;;;;;;5016878;28;20449;-64